Time;durP1;ratioP1;P1;durP2;ratioP2;P2;SDS_P1;SDS_P2;PMS_P1;PMS_P2;Temp;Humidity;BMP_temperature;BMP_pressure;BME280_temperature;BME280_humidity;BME280_pressure;Samples;Min_cycle;Max_cycle;Signal;HPM_P1;HPM_P2
2020/12/05 00:02:07;;;;;;;39.53;19.35;;;1.60;80.40;;;;;;5071018;28;20027;-65
2020/12/05 00:04:33;;;;;;;41.83;19.35;;;1.60;80.30;;;;;;5052765;28;20028;-65
2020/12/05 00:06:58;;;;;;;43.17;18.92;;;1.50;80.20;;;;;;5068013;28;20097;-65
2020/12/05 00:09:24;;;;;;;43.88;19.85;;;1.50;80.20;;;;;;5046650;28;20104;-65
2020/12/05 00:11:49;;;;;;;45.97;19.38;;;1.50;80.50;;;;;;5071180;28;20039;-65
2020/12/05 00:14:15;;;;;;;38.42;18.25;;;1.50;80.40;;;;;;5051673;28;20032;-65
2020/12/05 00:16:40;;;;;;;40.08;18.55;;;1.50;80.30;;;;;;5057202;28;20044;-65
2020/12/05 00:19:06;;;;;;;38.80;18.88;;;1.50;80.50;;;;;;5067900;28;20162;-64
2020/12/05 00:21:31;;;;;;;39.42;19.40;;;1.50;80.30;;;;;;5068512;28;20032;-65
2020/12/05 00:23:57;;;;;;;40.75;19.48;;;1.40;80.40;;;;;;5068790;28;20059;-65
2020/12/05 00:26:22;;;;;;;52.13;22.30;;;1.40;80.10;;;;;;5069095;28;20021;-65
2020/12/05 00:28:49;;;;;;;42.63;19.92;;;1.50;80.30;;;;;;5070181;28;20028;-65
2020/12/05 00:31:16;;;;;;;46.22;20.98;;;1.40;80.00;;;;;;5069013;28;20023;-65
2020/12/05 00:33:43;;;;;;;48.17;20.58;;;1.40;80.30;;;;;;5069426;28;20681;-65
2020/12/05 00:36:10;;;;;;;40.50;20.40;;;1.30;80.10;;;;;;5070273;28;20029;-65
2020/12/05 00:38:37;;;;;;;48.72;21.52;;;1.30;80.40;;;;;;5073019;28;20052;-65
2020/12/05 00:41:04;;;;;;;49.05;21.98;;;1.20;80.50;;;;;;5072794;28;20032;-64
2020/12/05 00:43:33;;;;;;;41.50;20.75;;;1.30;80.70;;;;;;5074515;28;20021;-65
2020/12/05 00:45:58;;;;;;;44.88;19.92;;;1.30;80.60;;;;;;5074062;28;20111;-65
2020/12/05 00:48:24;;;;;;;48.08;22.15;;;1.30;80.70;;;;;;5072259;28;20492;-64
2020/12/05 00:50:50;;;;;;;44.08;20.52;;;1.30;80.60;;;;;;5063127;28;20164;-65
2020/12/05 00:53:16;;;;;;;53.17;21.35;;;1.30;80.50;;;;;;5073529;28;20056;-65
2020/12/05 00:55:44;;;;;;;45.38;20.05;;;1.30;80.40;;;;;;5055657;28;20067;-65
2020/12/05 00:58:10;;;;;;;46.13;20.85;;;1.30;80.60;;;;;;5054773;28;20043;-65
2020/12/05 01:00:36;;;;;;;50.38;21.88;;;1.30;80.60;;;;;;5072574;28;20025;-65
2020/12/05 01:03:01;;;;;;;45.17;20.08;;;1.30;80.60;;;;;;5055355;28;20384;-64
2020/12/05 01:05:27;;;;;;;45.22;19.92;;;1.40;80.50;;;;;;5055211;28;20468;-65
2020/12/05 01:07:52;;;;;;;41.55;20.42;;;1.40;80.30;;;;;;5072647;28;20508;-64
2020/12/05 01:10:18;;;;;;;46.17;22.08;;;1.40;80.30;;;;;;5073000;28;20384;-65
2020/12/05 01:12:43;;;;;;;43.03;20.38;;;1.40;80.10;;;;;;5072146;28;20481;-65
2020/12/05 01:15:09;;;;;;;42.38;19.48;;;1.40;80.00;;;;;;5065047;28;20100;-65
2020/12/05 01:17:37;;;;;;;41.95;19.88;;;1.30;80.10;;;;;;5081440;28;20067;-65
2020/12/05 01:20:04;;;;;;;44.28;19.77;;;1.30;80.20;;;;;;5073081;28;20085;-66
2020/12/05 01:22:30;;;;;;;44.50;20.02;;;1.30;80.20;;;;;;5072654;28;20104;-65
2020/12/05 01:24:55;;;;;;;44.80;19.67;;;1.30;80.20;;;;;;5072273;28;20147;-65
2020/12/05 01:27:21;;;;;;;46.28;21.73;;;1.40;80.20;;;;;;5071925;28;20123;-65
2020/12/05 01:29:47;;;;;;;47.40;22.02;;;1.30;80.00;;;;;;5070525;28;20405;-65
2020/12/05 01:32:12;;;;;;;50.28;22.05;;;1.30;79.60;;;;;;5074215;28;20035;-65
2020/12/05 01:34:38;;;;;;;44.75;21.60;;;1.20;79.60;;;;;;5054771;28;20040;-65
2020/12/05 01:37:04;;;;;;;48.50;21.95;;;1.20;79.80;;;;;;5054074;28;20035;-64
2020/12/05 01:39:29;;;;;;;51.92;22.85;;;1.10;79.90;;;;;;5068501;28;20033;-65
2020/12/05 01:41:55;;;;;;;51.25;23.50;;;1.10;80.00;;;;;;5069190;28;20082;-65
2020/12/05 01:44:21;;;;;;;48.45;22.00;;;1.00;80.00;;;;;;5065663;28;20066;-64
2020/12/05 01:46:47;;;;;;;50.72;22.27;;;1.00;80.10;;;;;;5051003;28;20498;-64
2020/12/05 01:49:16;;;;;;;48.63;21.35;;;1.00;80.20;;;;;;5071561;28;20162;-65
2020/12/05 01:51:42;;;;;;;52.53;23.92;;;1.00;80.50;;;;;;5072844;28;20516;-65
2020/12/05 01:54:08;;;;;;;50.40;22.90;;;1.00;80.40;;;;;;5071895;28;20131;-65
2020/12/05 01:56:34;;;;;;;54.55;23.90;;;1.00;80.30;;;;;;5073236;28;20039;-65
2020/12/05 01:59:00;;;;;;;56.42;24.05;;;1.00;80.20;;;;;;5070719;28;20045;-65
2020/12/05 02:01:27;;;;;;;58.08;25.00;;;0.90;80.40;;;;;;5052823;28;20031;-65
2020/12/05 02:03:54;;;;;;;59.55;24.05;;;0.90;80.60;;;;;;5073259;28;20042;-65
2020/12/05 02:06:54;;;;;;;54.40;24.83;;;0.90;80.60;;;;;;5072321;28;20099;-64
2020/12/05 02:09:25;;;;;;;56.08;23.83;;;0.90;80.70;;;;;;5069496;28;20036;-65
2020/12/05 02:12:22;;;;;;;57.75;24.88;;;0.90;80.60;;;;;;5072853;28;20076;-65
2020/12/05 02:14:51;;;;;;;55.95;23.75;;;0.90;81.10;;;;;;5072738;28;20089;-65
2020/12/05 02:17:19;;;;;;;50.47;23.13;;;0.80;80.80;;;;;;5064457;28;20544;-65
2020/12/05 02:19:51;;;;;;;53.83;24.73;;;0.90;80.90;;;;;;5063994;28;20032;-65
2020/12/05 02:22:26;;;;;;;47.63;23.17;;;0.80;80.90;;;;;;5072205;28;20017;-65
2020/12/05 02:24:52;;;;;;;55.95;23.55;;;0.80;80.90;;;;;;5071244;28;20427;-65
2020/12/05 02:27:20;;;;;;;56.35;23.17;;;0.80;81.00;;;;;;5071725;28;20028;-65
2020/12/05 02:29:45;;;;;;;47.63;21.58;;;0.80;81.10;;;;;;5069328;28;20044;-65
2020/12/05 02:32:11;;;;;;;49.72;20.58;;;0.80;81.20;;;;;;5071723;28;20035;-65
2020/12/05 02:34:36;;;;;;;53.05;23.42;;;0.80;81.50;;;;;;5073210;28;20039;-65
2020/12/05 02:37:07;;;;;;;53.08;23.30;;;0.80;81.50;;;;;;5071180;28;20059;-65
2020/12/05 02:39:33;;;;;;;46.00;21.58;;;0.90;81.50;;;;;;5070165;28;20082;-65
2020/12/05 02:42:00;;;;;;;50.13;22.92;;;0.90;81.40;;;;;;5072490;28;20028;-65
2020/12/05 02:44:26;;;;;;;53.75;23.17;;;1.00;81.50;;;;;;5072085;28;20099;-65
2020/12/05 02:46:53;;;;;;;53.22;23.08;;;1.00;81.30;;;;;;5053443;28;20116;-66
2020/12/05 02:49:18;;;;;;;44.42;20.85;;;1.00;81.20;;;;;;5069366;28;20032;-65
2020/12/05 02:51:44;;;;;;;53.35;22.88;;;1.00;81.30;;;;;;5072436;28;20021;-65
2020/12/05 02:54:10;;;;;;;51.58;21.80;;;1.10;81.50;;;;;;5071302;28;20020;-65
2020/12/05 02:56:35;;;;;;;47.33;22.25;;;1.10;81.40;;;;;;5070200;28;20182;-65
2020/12/05 02:59:01;;;;;;;50.67;21.50;;;1.10;81.30;;;;;;5069873;28;20452;-65
2020/12/05 03:01:26;;;;;;;46.20;21.85;;;1.20;81.20;;;;;;5070318;28;20064;-65
2020/12/05 03:03:52;;;;;;;46.22;19.95;;;1.20;81.20;;;;;;5071511;28;20025;-67
2020/12/05 03:06:17;;;;;;;46.72;21.40;;;1.10;81.20;;;;;;5071246;28;20025;-65
2020/12/05 03:08:43;;;;;;;50.45;22.27;;;1.20;81.40;;;;;;5068248;28;20040;-65
2020/12/05 03:11:09;;;;;;;47.63;21.52;;;1.20;81.50;;;;;;5070767;28;20032;-64
2020/12/05 03:13:34;;;;;;;44.38;19.77;;;1.20;81.50;;;;;;5070597;28;20115;-65
2020/12/05 03:16:00;;;;;;;45.30;20.38;;;1.30;81.50;;;;;;5071095;28;20461;-65
2020/12/05 03:18:25;;;;;;;50.53;21.45;;;1.30;81.50;;;;;;5071558;28;20063;-65
2020/12/05 03:20:51;;;;;;;48.08;20.30;;;1.30;81.50;;;;;;5069738;28;20119;-65
2020/12/05 03:23:16;;;;;;;47.90;21.45;;;1.30;81.40;;;;;;5053376;28;20075;-65
2020/12/05 03:25:42;;;;;;;47.55;21.27;;;1.40;81.40;;;;;;5071344;28;20029;-65
2020/12/05 03:28:07;;;;;;;49.83;22.27;;;1.40;81.30;;;;;;5071867;28;20388;-65
2020/12/05 03:30:33;;;;;;;45.75;20.92;;;1.40;81.30;;;;;;5048968;28;20151;-65
2020/12/05 03:32:59;;;;;;;51.42;23.77;;;1.30;81.30;;;;;;5071600;28;20029;-65
2020/12/05 03:35:26;;;;;;;53.75;23.90;;;1.30;81.50;;;;;;5071036;28;20040;-64
2020/12/05 03:37:55;;;;;;;48.25;22.35;;;1.30;81.70;;;;;;5070933;28;20035;-65
2020/12/05 03:40:20;;;;;;;47.85;21.45;;;1.30;81.90;;;;;;5068943;28;20064;-65
2020/12/05 03:42:46;;;;;;;53.53;22.38;;;1.30;82.10;;;;;;5071036;28;20477;-65
2020/12/05 03:45:12;;;;;;;52.38;23.30;;;1.30;82.10;;;;;;5071522;28;20024;-65
2020/12/05 03:47:37;;;;;;;54.15;21.52;;;1.30;82.20;;;;;;5052220;28;20489;-65
2020/12/05 03:50:06;;;;;;;50.05;22.17;;;1.30;82.70;;;;;;5069029;28;20032;-65
2020/12/05 03:52:31;;;;;;;44.50;21.58;;;1.40;82.30;;;;;;5070444;28;20025;-65
2020/12/05 03:54:57;;;;;;;55.45;21.42;;;1.40;82.20;;;;;;5071765;28;20094;-65
2020/12/05 03:57:22;;;;;;;47.75;20.83;;;1.40;82.30;;;;;;5069292;28;20046;-65
2020/12/05 03:59:48;;;;;;;50.20;21.35;;;1.40;82.60;;;;;;5069135;28;20067;-65
2020/12/05 04:02:15;;;;;;;55.78;23.15;;;1.40;82.60;;;;;;5070911;28;20143;-65
2020/12/05 04:04:41;;;;;;;47.20;21.85;;;1.50;82.70;;;;;;5071800;28;20100;-65
2020/12/05 04:07:06;;;;;;;47.45;20.52;;;1.50;82.80;;;;;;5070273;28;20103;-64
2020/12/05 04:09:32;;;;;;;48.75;21.30;;;1.50;82.60;;;;;;5068613;28;20031;-65
2020/12/05 04:11:57;;;;;;;48.30;21.13;;;1.50;82.70;;;;;;5070724;28;20055;-65
2020/12/05 04:14:23;;;;;;;46.97;22.10;;;1.50;82.90;;;;;;5074788;28;20317;-65
2020/12/05 04:16:48;;;;;;;48.42;21.75;;;1.50;82.90;;;;;;5078428;28;20075;-65
2020/12/05 04:19:14;;;;;;;43.88;21.25;;;1.60;83.00;;;;;;5054388;28;20087;-65
2020/12/05 04:21:39;;;;;;;48.95;22.38;;;1.60;83.10;;;;;;5050500;28;20157;-65
2020/12/05 04:24:05;;;;;;;56.47;23.17;;;1.60;83.10;;;;;;5074868;28;20111;-65
2020/12/05 04:26:30;;;;;;;50.03;20.90;;;1.70;83.10;;;;;;5074349;28;20063;-65
2020/12/05 04:28:56;;;;;;;51.78;22.23;;;1.70;83.10;;;;;;5073932;28;20032;-65
2020/12/05 04:31:22;;;;;;;53.70;21.75;;;1.70;83.20;;;;;;5072608;28;20044;-65
2020/12/05 04:33:47;;;;;;;46.75;20.80;;;1.80;83.20;;;;;;5048979;28;20503;-65
2020/12/05 04:36:13;;;;;;;52.80;22.55;;;1.80;83.20;;;;;;5071054;28;20044;-65
2020/12/05 04:38:38;;;;;;;67.00;25.60;;;1.80;83.10;;;;;;5072966;28;20040;-65
2020/12/05 04:41:04;;;;;;;57.60;24.35;;;1.80;83.20;;;;;;5071873;28;20106;-65
2020/12/05 04:43:31;;;;;;;55.85;22.38;;;1.80;83.20;;;;;;5068266;28;20021;-65
2020/12/05 04:45:57;;;;;;;52.80;22.42;;;1.80;83.30;;;;;;5074742;28;20488;-65
2020/12/05 04:48:23;;;;;;;48.03;21.75;;;1.80;83.40;;;;;;5055389;28;20044;-65
2020/12/05 04:50:49;;;;;;;46.35;22.67;;;1.70;83.50;;;;;;5072782;28;20028;-65
2020/12/05 04:53:19;;;;;;;46.10;21.67;;;1.80;83.60;;;;;;5071487;28;20040;-65
2020/12/05 04:55:45;;;;;;;44.38;20.02;;;1.80;83.80;;;;;;5074800;28;20044;-64
2020/12/05 04:58:22;;;;;;;39.83;19.27;;;1.90;83.80;;;;;;5078243;28;20020;-64
2020/12/05 05:00:56;;;;;;;40.53;17.30;;;1.90;83.90;;;;;;5072485;28;20025;-65
2020/12/05 05:03:24;;;;;;;37.55;17.92;;;1.90;84.20;;;;;;5073188;28;20123;-64
2020/12/05 05:05:54;;;;;;;46.25;19.08;;;1.90;83.70;;;;;;5073808;28;20447;-65
2020/12/05 05:08:23;;;;;;;51.33;22.40;;;1.90;83.80;;;;;;5073483;28;20358;-65
2020/12/05 05:11:06;;;;;;;46.85;20.45;;;1.90;83.90;;;;;;5045538;28;20028;-65
2020/12/05 05:13:46;;;;;;;43.22;19.67;;;1.90;83.90;;;;;;5073034;28;20048;-65
2020/12/05 05:16:16;;;;;;;41.53;19.33;;;1.90;83.80;;;;;;5079940;28;20484;-64
2020/12/05 05:18:41;;;;;;;46.22;18.20;;;2.00;83.90;;;;;;5072626;28;20381;-65
2020/12/05 05:21:07;;;;;;;41.65;18.08;;;2.00;83.80;;;;;;5071022;28;20024;-65
2020/12/05 05:23:33;;;;;;;47.42;20.13;;;2.00;83.80;;;;;;5073152;28;20039;-65
2020/12/05 05:26:06;;;;;;;40.72;18.38;;;2.10;83.90;;;;;;5073881;28;20361;-65
2020/12/05 05:28:40;;;;;;;36.85;18.33;;;2.10;83.90;;;;;;5072082;28;20031;-65
2020/12/05 05:33:49;;;;;;;39.38;17.17;;;2.10;83.80;;;;;;5073243;28;20047;-65
2020/12/05 05:36:18;;;;;;;39.60;17.08;;;2.20;83.80;;;;;;5073135;28;20485;-65
2020/12/05 05:38:44;;;;;;;39.22;17.23;;;2.20;83.80;;;;;;5072277;28;20028;-65
2020/12/05 05:41:19;;;;;;;40.45;16.95;;;2.20;83.80;;;;;;5071400;28;20028;-65
2020/12/05 05:43:59;;;;;;;36.08;17.30;;;2.20;83.90;;;;;;5073141;28;20033;-65
2020/12/05 05:46:33;;;;;;;40.35;17.70;;;2.20;83.90;;;;;;5072916;28;20052;-65
2020/12/05 05:49:00;;;;;;;40.60;18.92;;;2.20;83.90;;;;;;5054794;28;20106;-64
2020/12/05 05:51:35;;;;;;;33.72;16.08;;;2.20;83.90;;;;;;5072225;28;20060;-64
2020/12/05 05:54:25;;;;;;;30.17;15.52;;;2.20;84.00;;;;;;5072558;28;20094;-65
2020/12/05 05:57:04;;;;;;;32.20;14.98;;;2.20;84.00;;;;;;5073938;28;20032;-65
2020/12/05 05:59:35;;;;;;;31.10;14.88;;;2.20;84.10;;;;;;5067936;28;20027;-65
2020/12/05 06:02:02;;;;;;;30.65;15.18;;;2.20;84.10;;;;;;5072298;28;20024;-64
2020/12/05 06:04:38;;;;;;;29.52;13.38;;;2.20;84.10;;;;;;5072998;28;20089;-65
2020/12/05 06:07:06;;;;;;;28.88;14.32;;;2.20;84.10;;;;;;5069538;28;20032;-64
2020/12/05 06:09:44;;;;;;;24.90;12.93;;;2.20;84.10;;;;;;5070325;28;20071;-65
2020/12/05 06:12:11;;;;;;;22.20;12.05;;;2.30;84.20;;;;;;5072855;28;20044;-64
2020/12/05 06:14:40;;;;;;;26.02;12.05;;;2.30;84.10;;;;;;5071831;28;20044;-64
2020/12/05 06:17:07;;;;;;;23.90;11.68;;;2.30;84.00;;;;;;5072924;28;20025;-65
2020/12/05 06:19:33;;;;;;;26.05;12.20;;;2.40;84.00;;;;;;5068648;28;20392;-64
2020/12/05 06:21:59;;;;;;;23.40;11.95;;;2.40;84.10;;;;;;5072578;28;20029;-64
2020/12/05 06:24:39;;;;;;;25.48;11.45;;;2.40;84.00;;;;;;5071086;28;20067;-64
2020/12/05 06:27:07;;;;;;;24.02;12.65;;;2.50;83.90;;;;;;5068350;28;20035;-66
2020/12/05 06:29:35;;;;;;;23.45;10.98;;;2.50;83.80;;;;;;5071500;28;20117;-64
2020/12/05 06:32:01;;;;;;;23.02;12.82;;;2.50;83.70;;;;;;5072625;28;20029;-64
2020/12/05 06:34:41;;;;;;;24.00;12.73;;;2.60;83.80;;;;;;5070285;28;20118;-64
2020/12/05 06:37:13;;;;;;;20.98;11.52;;;2.60;83.80;;;;;;5072789;28;20427;-64
2020/12/05 06:39:39;;;;;;;25.13;12.25;;;2.50;83.60;;;;;;5070461;28;20028;-64
2020/12/05 06:42:18;;;;;;;20.95;11.82;;;2.50;83.60;;;;;;5072981;28;20033;-64
2020/12/05 06:44:43;;;;;;;20.33;11.38;;;2.50;83.80;;;;;;5071952;28;20041;-64
2020/12/05 06:47:22;;;;;;;22.75;11.63;;;2.50;83.70;;;;;;5071975;28;20039;-66
2020/12/05 06:49:49;;;;;;;24.70;12.27;;;2.50;83.80;;;;;;5071266;28;20039;-64
2020/12/05 06:52:26;;;;;;;25.88;13.40;;;2.50;83.80;;;;;;5072112;28;20028;-64
2020/12/05 06:54:56;;;;;;;22.17;12.15;;;2.50;84.00;;;;;;5033151;28;20037;-64
2020/12/05 06:57:27;;;;;;;20.85;12.10;;;2.50;84.00;;;;;;5071540;28;20556;-64
2020/12/05 07:00:25;;;;;;;21.38;11.98;;;2.50;84.00;;;;;;5053357;28;20027;-64
2020/12/05 07:02:53;;;;;;;22.52;11.82;;;2.40;84.20;;;;;;5070884;28;20028;-65
2020/12/05 07:05:19;;;;;;;28.23;14.07;;;2.40;84.10;;;;;;5070449;28;20107;-64
2020/12/05 07:07:46;;;;;;;28.08;13.57;;;2.40;84.20;;;;;;5071909;28;20582;-65
2020/12/05 07:10:11;;;;;;;26.15;12.93;;;2.40;84.80;;;;;;5067441;28;20165;-65
2020/12/05 07:12:41;;;;;;;25.73;12.40;;;2.40;84.30;;;;;;5071537;28;20107;-65
2020/12/05 07:15:29;;;;;;;24.15;12.88;;;2.40;84.30;;;;;;5070975;28;20404;-65
2020/12/05 07:18:03;;;;;;;24.63;12.13;;;2.40;84.40;;;;;;5071762;28;20037;-65
2020/12/05 07:20:29;;;;;;;24.98;12.73;;;2.40;84.40;;;;;;5069655;28;20063;-65
2020/12/05 07:22:55;;;;;;;20.90;12.27;;;2.40;84.40;;;;;;5071874;28;20109;-65
2020/12/05 07:25:21;;;;;;;22.63;12.32;;;2.40;84.40;;;;;;5070910;28;20483;-65
2020/12/05 07:27:48;;;;;;;22.33;11.13;;;2.40;84.40;;;;;;5071852;28;20043;-65
2020/12/05 07:30:14;;;;;;;22.88;11.48;;;2.40;84.40;;;;;;5053160;28;20024;-65
2020/12/05 07:32:42;;;;;;;19.50;11.35;;;2.40;84.40;;;;;;5071552;28;20493;-65
2020/12/05 07:35:13;;;;;;;20.63;10.85;;;2.50;84.50;;;;;;5071149;28;20048;-65
2020/12/05 07:37:39;;;;;;;24.98;11.95;;;2.50;84.30;;;;;;5071822;28;20108;-64
2020/12/05 07:40:08;;;;;;;21.00;11.63;;;2.50;84.30;;;;;;5070469;28;20109;-65
2020/12/05 07:42:35;;;;;;;28.38;12.50;;;2.50;84.20;;;;;;5068572;28;20489;-64
2020/12/05 07:45:14;;;;;;;23.95;12.40;;;2.50;84.10;;;;;;5070608;28;20198;-65
2020/12/05 07:47:40;;;;;;;27.20;13.40;;;2.50;84.10;;;;;;5072036;28;20039;-65
2020/12/05 07:50:10;;;;;;;24.52;12.93;;;2.60;84.20;;;;;;5069951;28;20056;-65
2020/12/05 07:52:38;;;;;;;29.05;14.05;;;2.60;84.20;;;;;;5071478;28;20119;-65
2020/12/05 07:55:06;;;;;;;22.95;13.15;;;2.60;84.20;;;;;;5070121;28;20127;-65
2020/12/05 07:57:34;;;;;;;22.55;13.48;;;2.60;84.20;;;;;;5071224;28;20025;-64
2020/12/05 08:00:21;;;;;;;32.20;17.25;;;2.60;84.20;;;;;;5052369;28;20110;-65
2020/12/05 08:03:02;;;;;;;27.30;14.30;;;2.70;84.20;;;;;;5053431;28;20095;-65
2020/12/05 08:05:51;;;;;;;64.60;23.40;;;2.60;84.00;;;;;;5064422;28;20033;-65
2020/12/05 08:08:18;;;;;;;26.17;11.55;;;2.50;84.00;;;;;;5061775;28;20040;-64
2020/12/05 08:10:44;;;;;;;22.63;10.77;;;2.50;84.00;;;;;;5061988;28;20384;-65
2020/12/05 08:13:20;;;;;;;22.40;11.10;;;2.40;84.00;;;;;;5071525;28;20027;-65
2020/12/05 08:16:02;;;;;;;20.73;11.27;;;2.40;84.20;;;;;;5068026;28;20071;-64
2020/12/05 08:18:28;;;;;;;22.20;12.20;;;2.30;84.30;;;;;;5060615;28;20338;-65
2020/12/05 08:20:54;;;;;;;21.48;11.00;;;2.30;84.40;;;;;;5052945;28;20460;-65
2020/12/05 08:23:33;;;;;;;19.80;11.40;;;2.30;84.50;;;;;;5070942;28;20044;-65
2020/12/05 08:26:05;;;;;;;16.95;10.13;;;2.30;84.60;;;;;;5059317;28;20037;-65
2020/12/05 08:28:36;;;;;;;20.08;10.90;;;2.30;84.50;;;;;;5057258;28;20384;-65
2020/12/05 08:31:10;;;;;;;17.08;9.77;;;2.30;84.40;;;;;;5052263;28;20119;-66
2020/12/05 08:33:42;;;;;;;21.38;11.27;;;2.30;84.50;;;;;;5067127;28;20519;-66
2020/12/05 08:36:20;;;;;;;;;;;2.30;84.40;;;;;;5070587;28;20045;-66
2020/12/05 08:38:47;;;;;;;16.20;9.73;;;2.30;84.00;;;;;;5071755;28;19912;-65
2020/12/05 08:41:13;;;;;;;15.45;9.48;;;2.20;83.90;;;;;;5069313;28;20074;-66
2020/12/05 08:43:38;;;;;;;17.98;10.77;;;2.10;84.00;;;;;;5070814;28;20029;-66
2020/12/05 08:46:18;;;;;;;16.13;9.98;;;2.10;84.20;;;;;;5070350;28;20048;-66
2020/12/05 08:48:44;;;;;;;17.25;9.77;;;2.10;84.50;;;;;;5071689;28;20542;-66
2020/12/05 08:51:09;;;;;;;17.67;10.48;;;2.10;84.40;;;;;;5070464;28;20028;-66
2020/12/05 08:53:35;;;;;;;18.50;10.75;;;2.10;84.30;;;;;;5070615;28;20049;-65
2020/12/05 08:56:01;;;;;;;20.40;10.85;;;2.10;84.30;;;;;;5069774;28;20477;-66
2020/12/05 08:58:42;;;;;;;18.38;10.90;;;2.10;84.30;;;;;;5071221;28;20055;-66
2020/12/05 09:01:08;;;;;;;18.52;10.38;;;2.10;84.40;;;;;;5053829;28;20060;-65
2020/12/05 09:03:37;;;;;;;18.45;10.55;;;2.10;84.30;;;;;;5074693;28;20067;-66
2020/12/05 09:06:03;;;;;;;19.60;11.23;;;2.10;84.40;;;;;;5073743;28;20048;-66
2020/12/05 09:08:28;;;;;;;20.73;10.68;;;2.20;84.50;;;;;;5074411;28;20461;-66
2020/12/05 09:10:54;;;;;;;16.33;10.35;;;2.30;84.50;;;;;;5061530;28;20029;-65
2020/12/05 09:13:19;;;;;;;16.77;10.50;;;2.30;84.50;;;;;;5064087;28;20041;-66
2020/12/05 09:16:00;;;;;;;17.42;10.15;;;2.40;84.50;;;;;;5058399;28;20527;-65
2020/12/05 09:18:26;;;;;;;18.45;10.77;;;2.50;84.60;;;;;;5085271;28;20013;-66
2020/12/05 09:20:52;;;;;;;22.58;10.95;;;2.60;84.40;;;;;;5073099;28;20100;-66
2020/12/05 09:23:28;;;;;;;20.55;11.35;;;2.60;84.40;;;;;;5052028;28;20032;-66
2020/12/05 09:26:02;;;;;;;16.67;10.02;;;2.70;84.40;;;;;;5078149;28;20028;-65
2020/12/05 09:28:28;;;;;;;19.23;10.27;;;2.70;84.20;;;;;;5071884;28;20024;-66
2020/12/05 09:30:55;;;;;;;19.55;10.18;;;2.80;84.20;;;;;;5070209;28;20036;-66
2020/12/05 09:33:21;;;;;;;20.02;11.30;;;2.90;84.20;;;;;;5074151;28;20484;-65
2020/12/05 09:35:47;;;;;;;21.40;11.55;;;3.00;84.10;;;;;;5070644;28;20515;-65
2020/12/05 09:38:13;;;;;;;16.98;10.52;;;3.10;84.10;;;;;;5070725;28;20117;-66
2020/12/05 09:40:39;;;;;;;24.48;12.05;;;3.10;83.90;;;;;;5046892;28;20032;-67
2020/12/05 09:43:04;;;;;;;20.27;12.43;;;3.20;83.80;;;;;;5070942;28;20032;-66
2020/12/05 09:45:33;;;;;;;21.58;12.55;;;3.20;83.60;;;;;;5071593;28;20025;-66
2020/12/05 09:47:59;;;;;;;20.60;11.82;;;3.30;83.60;;;;;;5049941;28;20047;-66
2020/12/05 09:50:25;;;;;;;22.40;12.35;;;3.20;83.30;;;;;;5071500;28;20099;-66
2020/12/05 09:52:50;;;;;;;21.70;12.15;;;3.10;83.20;;;;;;5061813;28;20069;-66
2020/12/05 09:55:16;;;;;;;22.73;12.43;;;3.10;83.90;;;;;;5052535;28;20029;-66
2020/12/05 09:57:42;;;;;;;20.60;11.25;;;3.00;83.50;;;;;;5070085;28;20510;-66
2020/12/05 10:00:10;;;;;;;22.52;11.68;;;3.00;83.70;;;;;;5069987;28;20043;-66
2020/12/05 10:02:37;;;;;;;20.05;11.88;;;2.90;83.80;;;;;;5069680;28;20025;-66
2020/12/05 10:05:04;;;;;;;21.77;12.10;;;2.90;83.80;;;;;;5070654;28;20496;-66
2020/12/05 10:07:30;;;;;;;21.42;12.35;;;2.90;84.00;;;;;;5066278;28;20048;-66
2020/12/05 10:09:55;;;;;;;19.70;12.30;;;2.90;83.90;;;;;;5068564;28;20464;-66
2020/12/05 10:12:21;;;;;;;23.25;12.82;;;2.90;84.00;;;;;;5070637;28;20040;-66
2020/12/05 10:14:46;;;;;;;20.70;12.38;;;2.90;83.90;;;;;;5070571;28;20080;-66
2020/12/05 10:17:12;;;;;;;20.58;12.50;;;2.90;84.00;;;;;;5070518;28;20024;-66
2020/12/05 10:19:38;;;;;;;19.92;12.77;;;2.90;84.10;;;;;;5070322;28;20028;-66
2020/12/05 10:22:04;;;;;;;20.98;12.60;;;2.90;84.20;;;;;;5071241;28;20024;-66
2020/12/05 10:24:29;;;;;;;19.45;11.43;;;3.00;84.20;;;;;;5069997;28;20036;-66
2020/12/05 10:26:55;;;;;;;18.77;11.70;;;3.00;84.20;;;;;;5070353;28;20415;-66
2020/12/05 10:29:21;;;;;;;22.38;12.20;;;3.00;84.10;;;;;;5070027;28;20047;-66
2020/12/05 10:31:50;;;;;;;21.00;12.55;;;3.00;84.00;;;;;;5071454;28;20396;-66
2020/12/05 10:34:16;;;;;;;18.00;11.25;;;3.10;84.10;;;;;;5069867;28;20109;-66
2020/12/05 10:36:42;;;;;;;19.75;11.85;;;3.10;84.00;;;;;;5069471;28;20020;-66
2020/12/05 10:39:08;;;;;;;19.63;11.13;;;3.10;84.00;;;;;;5068306;28;20146;-66
2020/12/05 10:41:36;;;;;;;18.20;11.05;;;3.10;84.00;;;;;;5070869;28;20025;-67
2020/12/05 10:44:03;;;;;;;18.88;11.57;;;3.10;84.00;;;;;;5070121;28;20063;-66
2020/12/05 10:46:29;;;;;;;20.73;12.50;;;3.10;84.10;;;;;;5070923;28;20021;-65
2020/12/05 10:48:54;;;;;;;21.80;11.35;;;3.10;84.10;;;;;;5068764;28;20174;-67
2020/12/05 10:51:20;;;;;;;19.92;12.15;;;3.00;84.00;;;;;;5053323;28;20064;-65
2020/12/05 10:53:45;;;;;;;22.45;10.82;;;3.00;84.10;;;;;;5071239;28;20043;-65
2020/12/05 10:56:11;;;;;;;23.10;11.82;;;3.00;84.10;;;;;;5071661;28;20031;-66
2020/12/05 10:58:36;;;;;;;18.33;11.38;;;3.00;84.10;;;;;;5070699;28;20039;-65
2020/12/05 11:01:02;;;;;;;18.63;11.23;;;3.00;84.10;;;;;;5070883;28;20438;-65
2020/12/05 11:03:28;;;;;;;21.13;10.88;;;3.00;84.20;;;;;;5071444;28;20032;-65
2020/12/05 11:05:53;;;;;;;16.48;10.48;;;3.00;84.20;;;;;;5071001;28;20032;-65
2020/12/05 11:08:19;;;;;;;18.98;11.05;;;3.00;84.20;;;;;;5070423;28;20046;-65
2020/12/05 11:10:44;;;;;;;17.52;10.85;;;3.00;84.30;;;;;;5071035;28;20028;-65
2020/12/05 11:13:10;;;;;;;16.83;10.45;;;3.00;84.30;;;;;;5071363;28;20051;-66
2020/12/05 11:15:35;;;;;;;14.45;9.50;;;3.10;84.40;;;;;;5070953;28;20074;-65
2020/12/05 11:18:01;;;;;;;19.35;11.00;;;3.10;84.30;;;;;;5070399;28;20042;-66
2020/12/05 11:20:26;;;;;;;17.77;10.63;;;3.10;84.40;;;;;;5070485;28;20029;-66
2020/12/05 11:22:53;;;;;;;19.65;11.00;;;3.10;84.40;;;;;;5069321;28;20040;-64
2020/12/05 11:25:19;;;;;;;16.65;10.85;;;3.10;84.30;;;;;;5068515;28;20688;-64
2020/12/05 11:27:44;;;;;;;17.55;10.35;;;3.20;84.30;;;;;;5050169;28;20040;-65
2020/12/05 11:30:10;;;;;;;21.10;11.40;;;3.20;84.20;;;;;;5070097;28;20853;-66
2020/12/05 11:32:37;;;;;;;20.77;12.23;;;3.20;84.20;;;;;;5070726;28;20119;-66
2020/12/05 11:35:06;;;;;;;20.65;11.88;;;3.20;84.20;;;;;;5069771;28;20024;-65
2020/12/05 11:37:32;;;;;;;18.17;11.25;;;3.20;84.20;;;;;;5070222;28;20036;-65
2020/12/05 11:39:58;;;;;;;19.23;11.18;;;3.10;84.20;;;;;;5069309;28;20040;-66
2020/12/05 11:42:23;;;;;;;20.13;11.35;;;3.10;84.30;;;;;;5065495;28;20055;-65
2020/12/05 11:44:49;;;;;;;20.85;12.05;;;3.10;84.20;;;;;;5068427;28;20487;-65
2020/12/05 11:47:15;;;;;;;22.20;12.57;;;3.10;84.20;;;;;;5069666;28;20063;-66
2020/12/05 11:49:40;;;;;;;21.10;12.23;;;3.10;84.30;;;;;;5068428;28;20049;-65
2020/12/05 11:52:06;;;;;;;22.70;12.80;;;3.10;84.40;;;;;;5068038;28;20035;-65
2020/12/05 11:54:31;;;;;;;22.42;12.43;;;3.00;84.40;;;;;;5072608;28;20029;-65
2020/12/05 11:56:57;;;;;;;22.80;12.40;;;3.00;84.50;;;;;;5068832;28;20154;-64
2020/12/05 11:59:22;;;;;;;24.60;12.93;;;3.10;84.50;;;;;;5066689;28;20102;-64
2020/12/05 12:01:48;;;;;;;24.38;13.93;;;3.00;84.40;;;;;;5069647;28;20028;-65
2020/12/05 12:04:13;;;;;;;26.17;13.35;;;3.10;84.50;;;;;;5058661;28;20086;-65
2020/12/05 12:06:39;;;;;;;23.83;14.63;;;3.10;84.50;;;;;;5069886;28;20040;-66
2020/12/05 12:09:07;;;;;;;22.48;13.25;;;3.10;84.50;;;;;;5068552;28;20044;-65
2020/12/05 12:11:33;;;;;;;23.67;13.98;;;3.10;84.50;;;;;;5070016;28;20090;-65
2020/12/05 12:13:58;;;;;;;24.05;13.93;;;3.10;84.60;;;;;;5070571;28;20053;-65
2020/12/05 12:16:24;;;;;;;21.67;13.75;;;3.20;84.50;;;;;;5066225;28;20045;-65
2020/12/05 12:18:53;;;;;;;21.45;13.30;;;3.20;84.50;;;;;;5069968;28;20024;-65
2020/12/05 12:21:23;;;;;;;21.40;12.82;;;3.30;84.50;;;;;;5069563;28;20555;-65
2020/12/05 12:23:48;;;;;;;22.92;13.13;;;3.30;84.60;;;;;;5069618;28;20381;-65
2020/12/05 12:26:14;;;;;;;22.70;12.30;;;3.40;84.30;;;;;;5069814;28;20059;-66
2020/12/05 12:28:39;;;;;;;20.80;11.70;;;3.40;84.20;;;;;;5070699;28;20028;-65
2020/12/05 12:31:05;;;;;;;23.48;12.35;;;3.40;84.20;;;;;;5079272;28;20036;-66
2020/12/05 12:33:30;;;;;;;21.52;12.90;;;3.40;84.30;;;;;;5084237;28;20404;-65
2020/12/05 12:35:56;;;;;;;23.20;13.25;;;3.40;84.20;;;;;;5085453;28;20477;-65
2020/12/05 12:38:21;;;;;;;19.55;11.90;;;3.40;84.10;;;;;;5073933;28;20033;-65
2020/12/05 12:40:47;;;;;;;19.20;11.82;;;3.40;84.20;;;;;;5074084;28;20060;-65
2020/12/05 12:43:13;;;;;;;22.02;12.35;;;3.40;84.10;;;;;;5073927;28;20028;-65
2020/12/05 12:45:40;;;;;;;19.35;11.40;;;3.40;84.20;;;;;;5073708;28;20012;-65